Saint John's, Antigua and Barbuda
Current Conditions -  °F | °C
As of 5:00 PM on Saturday 25 Oct 2014 (Local Time) from TAPA Reporting Station
Few Clouds Few Clouds  
Wind Chill: 84°   Ceiling: Unl
Heat Index: 91°   Visibility: 6mi
Dew Point: 73°   Wind: 8mph
Humidity: 70%   Direction: 120°ESE
Pressure: 29.85"   Gusts: NA
Location:  17.11°N, 61.85°W
Report Text: TAPA 252100Z 12007KT 9999 FEW018 29/23 Q1011 NOSIG
Loading
Personal Weather Stations






























Interactive Weather Map
Tropical Storm Tracking
New forecast layout! Learn more

10-Day Weather Forecast

Advertisements
Track Severe Weather on mobile